Time;durP1;ratioP1;P1;durP2;ratioP2;P2;SDS_P1;SDS_P2;PMS_P1;PMS_P2;Temp;Humidity;BMP_temperature;BMP_pressure;BME280_temperature;BME280_humidity;BME280_pressure;Samples;Min_cycle;Max_cycle;Signal;HPM_P1;HPM_P2
2022/01/24 00:00:07;;;;;;;4.30;1.70;;;;;;;-3.93;69.72;101095.00;1730783;80;21676;-49
2022/01/24 00:02:36;;;;;;;2.60;1.17;;;;;;;-3.93;69.89;101091.06;1742842;80;21066;-51
2022/01/24 00:05:03;;;;;;;1.90;1.10;;;;;;;-3.91;69.59;101095.50;1733484;80;21102;-50
2022/01/24 00:07:31;;;;;;;1.63;1.43;;;;;;;-3.92;69.76;101086.27;1731767;80;21406;-50
2022/01/24 00:10:00;;;;;;;3.13;1.47;;;;;;;-3.88;69.81;101091.66;1734251;80;20953;-50
2022/01/24 00:12:34;;;;;;;4.17;1.13;;;;;;;-3.84;69.57;101087.40;1733345;80;21074;-50
2022/01/24 00:28:15;;;;;;;3.50;1.30;;;;;;;-3.82;69.87;101112.88;1753067;81;20206;-49
2022/01/24 00:30:41;;;;;;;5.03;1.37;;;;;;;-3.80;69.87;101118.20;1755336;79;21079;-51
2022/01/24 00:33:07;;;;;;;6.53;1.57;;;;;;;-3.78;69.87;101120.89;1744512;80;21038;-49
2022/01/24 00:35:34;;;;;;;7.17;1.97;;;;;;;-3.81;69.87;101124.30;1744214;80;21535;-50
2022/01/24 00:38:02;;;;;;;7.53;1.80;;;;;;;-3.86;70.08;101124.17;1746342;80;21061;-49
2022/01/24 00:45:30;;;;;;;2.10;1.27;;;;;;;-3.92;70.47;101120.05;1763185;79;21549;-51
2022/01/24 00:48:39;;;;;;;2.73;1.40;;;;;;;-3.92;70.60;101127.05;1760526;79;21157;-50
2022/01/24 00:53:11;;;;;;;4.12;2.22;;;;;;;-4.00;70.69;101124.17;1710524;79;21007;-50
2022/01/24 00:55:26;;;;;;;4.50;2.33;;;;;;;-4.03;70.85;101129.74;1761305;79;21285;-50
2022/01/24 00:57:52;;;;;;;4.93;2.17;;;;;;;-4.09;70.96;101129.55;1742943;80;21550;-50
2022/01/24 01:00:19;;;;;;;5.43;3.13;;;;;;;-4.12;71.10;101125.50;1745213;80;21597;-51
2022/01/24 01:02:45;;;;;;;7.90;2.47;;;;;;;-4.18;71.18;101118.73;1743414;80;21371;-50
2022/01/24 01:07:52;;;;;;;6.90;3.13;;;;;;;-4.28;71.51;101118.44;1747913;80;21105;-50
2022/01/24 01:18:22;;;;;;;9.83;4.08;;;;;;;-4.34;71.66;101133.12;1745639;80;21052;-51
2022/01/24 01:21:11;;;;;;;5.53;3.07;;;;;;;-4.38;71.78;101125.95;1749762;80;21049;-51
2022/01/24 01:23:53;;;;;;;6.53;3.63;;;;;;;-4.41;71.87;101137.67;1741972;80;21602;-51
2022/01/24 01:26:34;;;;;;;7.50;3.67;;;;;;;-4.49;72.01;101140.46;1746388;80;21113;-49
2022/01/24 01:29:05;;;;;;;5.37;3.27;;;;;;;-4.62;72.09;101146.63;1747642;80;21044;-49
2022/01/24 01:32:19;;;;;;;5.90;3.17;;;;;;;-4.71;72.31;101138.42;1749264;80;21668;-50
2022/01/24 01:36:44;;;;;;;7.33;3.53;;;;;;;-4.90;72.68;101144.28;1702709;80;21107;-50
2022/01/24 01:53:01;;;;;;;9.27;5.37;;;;;;;-5.19;73.42;101150.70;1737180;80;21154;-48
2022/01/24 01:55:26;;;;;;;14.07;6.83;;;;;;;-5.17;73.54;101151.63;1725805;80;25370;-48
2022/01/24 01:57:43;;;;;;;11.47;5.80;;;;;;;-5.15;73.59;101153.90;1681103;83;20978;-48
2022/01/24 02:00:10;;;;;;;8.67;5.07;;;;;;;-5.09;73.65;101153.22;1680586;83;21089;-49
2022/01/24 02:02:37;;;;;;;6.37;3.93;;;;;;;-5.06;73.46;101162.53;1740914;80;21088;-49
2022/01/24 02:05:05;;;;;;;8.20;4.03;;;;;;;-5.11;73.45;101162.80;1740762;80;21770;-48
2022/01/24 02:07:33;;;;;;;8.93;4.57;;;;;;;-5.15;73.57;101164.81;1746086;80;20872;-49
2022/01/24 02:09:59;;;;;;;18.77;7.77;;;;;;;-5.16;73.65;101165.64;1742331;80;21101;-48
2022/01/24 02:12:27;;;;;;;11.00;5.40;;;;;;;-5.23;73.50;101165.84;1743078;80;21052;-49
2022/01/24 02:14:58;;;;;;;10.60;4.97;;;;;;;-5.39;73.05;101170.05;1733458;80;21056;-49
2022/01/24 02:17:40;;;;;;;21.43;6.80;;;;;;;-5.65;73.14;101175.59;1739298;80;21526;-50
2022/01/24 02:24:56;;;;;;;12.23;5.83;;;;;;;-6.20;73.77;101177.74;1744918;80;20966;-49
2022/01/24 02:27:22;;;;;;;15.97;6.00;;;;;;;-6.33;73.91;101184.63;1737470;80;21070;-51
2022/01/24 02:30:11;;;;;;;10.07;5.00;;;;;;;-6.47;74.03;101188.41;1741008;80;21513;-51
2022/01/24 02:32:20;;;;;;;8.47;3.17;;;;;;;-6.56;74.37;101194.15;1733228;80;21058;-51
2022/01/24 02:34:49;;;;;;;3.67;2.33;;;;;;;-6.58;74.63;101198.00;1743155;80;22471;-50
2022/01/24 02:37:18;;;;;;;6.40;2.00;;;;;;;-6.66;74.44;101195.47;1742480;80;21120;-51
2022/01/24 02:39:56;;;;;;;4.03;2.00;;;;;;;-6.73;74.23;101201.69;1744819;80;20989;-51
2022/01/24 02:53:22;;;;;;;4.77;2.10;;;;;;;-7.22;74.84;101190.31;1743185;80;21101;-51
2022/01/24 02:55:49;;;;;;;6.73;2.23;;;;;;;-7.27;74.83;101196.66;1744056;80;21078;-50
2022/01/24 02:58:17;;;;;;;5.13;2.40;;;;;;;-7.30;75.09;101198.23;1740840;80;21455;-49
2022/01/24 03:00:45;;;;;;;5.67;2.97;;;;;;;-7.28;75.11;101205.74;1740452;80;21074;-49
2022/01/24 03:03:12;;;;;;;12.43;3.70;;;;;;;-7.27;75.20;101214.08;1744706;80;21080;-49
2022/01/24 03:05:38;;;;;;;8.23;3.17;;;;;;;-7.27;75.26;101203.20;1742882;80;21053;-50
2022/01/24 03:08:06;;;;;;;9.53;4.23;;;;;;;-7.26;75.28;101202.38;1744363;80;21138;-50
2022/01/24 03:10:41;;;;;;;8.33;3.50;;;;;;;-7.23;75.44;101206.87;1739322;80;21041;-49
2022/01/24 03:13:32;;;;;;;10.67;4.10;;;;;;;-7.22;75.43;101205.11;1740951;80;21018;-49
2022/01/24 03:15:51;;;;;;;9.57;3.70;;;;;;;-7.25;75.53;101211.12;1735424;80;22499;-50
2022/01/24 03:18:18;;;;;;;9.27;4.60;;;;;;;-7.28;75.53;101209.66;1736271;80;21159;-50
2022/01/24 03:20:44;;;;;;;10.73;4.33;;;;;;;-7.35;75.62;101223.30;1737686;80;23259;-50
2022/01/24 03:23:12;;;;;;;8.63;3.90;;;;;;;-7.43;75.74;101218.12;1737044;80;21334;-50
2022/01/24 03:25:39;;;;;;;9.03;4.50;;;;;;;-7.48;75.98;101213.06;1739258;80;21492;-49
2022/01/24 03:28:05;;;;;;;10.10;4.77;;;;;;;-7.49;76.02;101221.77;1739181;80;21373;-50
2022/01/24 03:30:33;;;;;;;11.30;3.80;;;;;;;-7.50;76.26;101222.17;1734968;80;21117;-49
2022/01/24 03:33:00;;;;;;;8.33;4.90;;;;;;;-7.46;76.20;101221.88;1740844;80;21639;-49
2022/01/24 03:35:26;;;;;;;5.37;3.03;;;;;;;-7.40;76.24;101224.81;1741909;80;21060;-49
2022/01/24 03:37:53;;;;;;;5.87;3.10;;;;;;;-7.36;76.04;101222.80;1678075;83;21096;-49
2022/01/24 03:40:19;;;;;;;6.60;3.53;;;;;;;-7.35;75.87;101220.67;1681630;84;21113;-48
2022/01/24 03:42:45;;;;;;;12.87;3.90;;;;;;;-7.32;75.86;101221.73;1703024;82;21101;-49
2022/01/24 03:45:12;;;;;;;9.83;4.10;;;;;;;-7.30;75.76;101214.82;1704547;82;22107;-49
2022/01/24 03:47:55;;;;;;;11.73;4.73;;;;;;;-7.29;75.65;101216.61;1682408;82;21492;-49
2022/01/24 03:50:17;;;;;;;12.00;4.90;;;;;;;-7.28;75.74;101220.13;1679643;83;21100;-50
2022/01/24 03:52:44;;;;;;;10.17;5.10;;;;;;;-7.27;75.78;101227.16;1690548;83;20920;-49
2022/01/24 03:55:11;;;;;;;10.10;4.97;;;;;;;-7.28;75.70;101235.83;1682787;83;20997;-49
2022/01/24 03:57:37;;;;;;;15.77;7.20;;;;;;;-7.28;75.80;101234.52;1687444;83;21129;-49
2022/01/24 04:00:06;;;;;;;16.00;7.63;;;;;;;-7.30;75.70;101237.47;1737539;80;20899;-51
2022/01/24 04:02:34;;;;;;;18.87;8.10;;;;;;;-7.35;75.75;101233.76;1697987;82;20873;-50
2022/01/24 04:05:00;;;;;;;13.13;5.90;;;;;;;-7.44;75.90;101236.84;1733581;80;20926;-50
2022/01/24 04:07:27;;;;;;;12.77;5.50;;;;;;;-7.51;76.17;101244.33;1701023;82;20994;-50
2022/01/24 04:09:54;;;;;;;11.77;5.53;;;;;;;-7.52;76.26;101242.53;1733808;81;21099;-49
2022/01/24 04:12:24;;;;;;;11.40;4.50;;;;;;;-7.54;76.33;101242.86;1734746;81;20927;-49
2022/01/24 04:22:31;;;;;;;9.00;4.00;;;;;;;-7.85;77.05;101243.11;1735543;80;21758;-50
2022/01/24 04:24:59;;;;;;;6.97;3.40;;;;;;;-7.85;77.47;101237.89;1727701;80;21053;-49
2022/01/24 04:27:22;;;;;;;7.47;3.10;;;;;;;-7.86;77.56;101234.38;1731582;80;21465;-49
2022/01/24 04:29:48;;;;;;;6.53;3.20;;;;;;;-7.87;77.97;101234.30;1731665;81;21635;-49
2022/01/24 04:32:16;;;;;;;8.27;3.93;;;;;;;-7.86;78.04;101236.09;1725664;81;21058;-50
2022/01/24 04:34:43;;;;;;;7.30;3.63;;;;;;;-7.83;78.34;101224.48;1731419;81;21584;-50
2022/01/24 04:37:09;;;;;;;8.43;2.97;;;;;;;-7.82;78.37;101219.30;1731786;81;22108;-50
2022/01/24 04:39:35;;;;;;;11.83;4.83;;;;;;;-7.84;78.57;101227.52;1730149;81;21144;-50
2022/01/24 04:42:09;;;;;;;8.53;3.83;;;;;;;-7.88;78.75;101216.41;1731613;80;21101;-50
2022/01/24 04:44:53;;;;;;;9.90;4.23;;;;;;;-7.89;78.83;101219.84;1737957;80;20982;-50
2022/01/24 04:47:24;;;;;;;9.23;3.93;;;;;;;-7.88;79.01;101229.48;1739349;80;21326;-50
2022/01/24 04:53:47;;;;;;;11.30;4.50;;;;;;;-7.86;79.18;101224.33;1734906;80;21865;-48
2022/01/24 04:55:05;;;;;;;10.20;4.43;;;;;;;-7.88;79.33;101226.86;1722350;80;21421;-48
2022/01/24 04:57:31;;;;;;;13.27;4.57;;;;;;;-7.86;79.31;101234.38;1737489;80;21069;-48
2022/01/24 05:00:00;;;;;;;12.37;6.00;;;;;;;-7.79;79.35;101244.30;1737554;80;22015;-48
2022/01/24 05:02:27;;;;;;;14.23;6.50;;;;;;;-7.74;79.30;101253.25;1736486;80;21121;-48
2022/01/24 05:04:54;;;;;;;16.23;6.03;;;;;;;-7.72;79.11;101254.23;1742369;80;21463;-49
2022/01/24 05:07:21;;;;;;;10.13;5.07;;;;;;;-7.69;78.95;101256.11;1738525;80;21509;-48
2022/01/24 05:09:56;;;;;;;10.50;4.33;;;;;;;-7.74;78.66;101248.02;1733639;80;21969;-49
2022/01/24 05:21:31;;;;;;;8.93;3.85;;;;;;;-7.81;78.47;101268.16;1740264;80;21091;-49
2022/01/24 05:25:39;;;;;;;7.67;2.83;;;;;;;-7.86;78.60;101265.73;1740915;80;22667;-49
2022/01/24 05:28:05;;;;;;;8.33;3.63;;;;;;;-7.85;78.62;101257.49;1732069;80;21085;-48
2022/01/24 05:30:31;;;;;;;10.80;3.67;;;;;;;-7.86;78.43;101271.37;1733227;80;21024;-49
2022/01/24 05:32:58;;;;;;;9.63;2.77;;;;;;;-7.89;78.53;101269.50;1742900;80;21045;-50
2022/01/24 05:35:24;;;;;;;5.43;2.00;;;;;;;-7.87;78.62;101269.17;1740883;80;21131;-51
2022/01/24 05:37:50;;;;;;;9.43;3.40;;;;;;;-7.86;78.58;101272.27;1737424;80;21133;-47
2022/01/24 05:40:16;;;;;;;6.07;2.83;;;;;;;-7.86;78.50;101269.66;1738260;80;21693;-50
2022/01/24 05:42:43;;;;;;;4.37;2.30;;;;;;;-7.86;78.41;101274.89;1731087;80;21433;-48
2022/01/24 05:45:09;;;;;;;6.57;2.97;;;;;;;-7.88;78.32;101276.52;1712818;82;21689;-49
2022/01/24 05:47:36;;;;;;;5.70;2.40;;;;;;;-7.90;78.28;101279.46;1705119;81;21067;-50
2022/01/24 05:50:03;;;;;;;7.13;3.10;;;;;;;-7.90;78.25;101279.46;1709993;81;21173;-50
2022/01/24 05:52:31;;;;;;;4.43;2.03;;;;;;;-7.89;78.22;101285.59;1708536;82;20979;-52
2022/01/24 05:54:58;;;;;;;5.20;2.73;;;;;;;-7.87;78.14;101280.03;1709319;82;21069;-49
2022/01/24 05:57:24;;;;;;;8.63;2.80;;;;;;;-7.84;78.09;101285.02;1708175;82;21195;-49
2022/01/24 05:59:52;;;;;;;8.70;3.80;;;;;;;-7.82;77.98;101279.84;1712429;81;21097;-53
2022/01/24 06:02:18;;;;;;;5.63;2.87;;;;;;;-7.82;77.87;101287.68;1710106;81;21086;-50
2022/01/24 06:04:45;;;;;;;4.93;2.63;;;;;;;-7.84;77.83;101283.71;1709455;81;21662;-51
2022/01/24 06:07:12;;;;;;;7.83;3.13;;;;;;;-7.82;77.79;101286.38;1709296;82;21148;-48
2022/01/24 06:09:38;;;;;;;6.83;3.20;;;;;;;-7.83;77.73;101289.84;1710202;82;21181;-50
2022/01/24 06:12:06;;;;;;;6.23;2.87;;;;;;;-7.85;77.67;101284.53;1707261;81;21193;-50
2022/01/24 06:14:34;;;;;;;7.17;2.70;;;;;;;-7.87;77.72;101290.08;1713527;82;21144;-48
2022/01/24 06:17:00;;;;;;;8.57;3.00;;;;;;;-7.85;77.75;101296.29;1709011;81;21064;-48
2022/01/24 06:19:26;;;;;;;7.37;2.70;;;;;;;-7.84;77.76;101298.50;1707979;82;21370;-48
2022/01/24 06:21:54;;;;;;;10.93;3.27;;;;;;;-7.84;77.65;101305.93;1711337;82;21478;-48
2022/01/24 06:24:20;;;;;;;7.77;3.70;;;;;;;-7.84;77.65;101295.88;1718151;82;22250;-51
2022/01/24 06:26:47;;;;;;;9.43;4.30;;;;;;;-7.85;77.65;101300.20;1709884;82;21102;-49
2022/01/24 06:29:13;;;;;;;9.57;4.40;;;;;;;-7.88;77.57;101299.14;1707000;82;21129;-49
2022/01/24 06:31:39;;;;;;;7.80;3.70;;;;;;;-7.92;77.61;101299.42;1706426;82;21071;-50
2022/01/24 06:34:06;;;;;;;8.67;3.07;;;;;;;-7.94;77.56;101303.67;1707006;82;21053;-52
2022/01/24 06:36:32;;;;;;;9.23;3.07;;;;;;;-7.93;77.70;101316.33;1714721;82;21042;-47
2022/01/24 06:39:03;;;;;;;10.53;3.30;;;;;;;-7.92;77.72;101308.98;1706073;82;22689;-48
2022/01/24 06:41:33;;;;;;;3.83;2.30;;;;;;;-7.91;77.75;101314.70;1706757;82;21136;-48
2022/01/24 06:43:59;;;;;;;6.70;2.60;;;;;;;-7.92;77.77;101320.74;1721836;80;21567;-52
2022/01/24 06:46:25;;;;;;;4.87;2.13;;;;;;;-7.93;77.88;101318.53;1732645;81;21307;-51
2022/01/24 06:48:51;;;;;;;6.67;2.77;;;;;;;-7.88;77.89;101320.05;1735635;80;21528;-51
2022/01/24 06:51:19;;;;;;;4.53;2.43;;;;;;;-7.87;77.84;101316.62;1735570;80;21090;-49
2022/01/24 06:53:45;;;;;;;6.70;3.17;;;;;;;-7.83;77.84;101315.98;1736544;81;20892;-50
2022/01/24 06:56:12;;;;;;;8.13;3.00;;;;;;;-7.82;77.76;101317.33;1739832;80;20992;-49
2022/01/24 06:58:38;;;;;;;7.33;3.03;;;;;;;-7.81;77.89;101312.59;1732983;81;21035;-51
2022/01/24 07:01:05;;;;;;;8.47;3.70;;;;;;;-7.75;78.04;101305.48;1731235;80;21080;-48
2022/01/24 07:03:31;;;;;;;7.70;3.10;;;;;;;-7.72;78.02;101306.92;1731535;81;22094;-50
2022/01/24 07:05:58;;;;;;;6.77;2.93;;;;;;;-7.69;78.11;101307.98;1735470;81;21702;-49
2022/01/24 07:08:24;;;;;;;7.53;4.33;;;;;;;-7.67;78.20;101305.05;1727985;80;21121;-49
2022/01/24 07:10:51;;;;;;;11.30;5.27;;;;;;;-7.57;78.30;101313.34;1734833;80;21018;-52
2022/01/24 07:13:19;;;;;;;8.10;3.43;;;;;;;-7.49;78.36;101312.89;1729811;81;21398;-49
2022/01/24 07:16:01;;;;;;;11.60;3.77;;;;;;;-7.40;78.26;101307.20;1733403;81;21178;-50
2022/01/24 07:20:56;;;;;;;8.73;3.17;;;;;;;-7.27;78.14;101307.85;1733154;81;21691;-50
2022/01/24 07:23:22;;;;;;;10.30;4.03;;;;;;;-7.21;78.07;101308.55;1728958;80;21611;-49
2022/01/24 07:25:48;;;;;;;12.33;4.37;;;;;;;-7.16;78.10;101302.23;1728878;80;21646;-48
2022/01/24 07:28:15;;;;;;;11.33;3.20;;;;;;;-7.11;77.99;101304.23;1738207;80;21121;-48
2022/01/24 07:30:42;;;;;;;13.40;5.23;;;;;;;-7.08;77.91;101307.00;1734268;80;21125;-48
2022/01/24 07:33:08;;;;;;;12.43;4.47;;;;;;;-7.06;77.87;101301.84;1738053;80;21045;-49
2022/01/24 07:35:35;;;;;;;8.37;4.23;;;;;;;-7.01;77.96;101305.56;1733127;80;21096;-49
2022/01/24 07:38:02;;;;;;;9.47;4.07;;;;;;;-6.96;78.00;101298.80;1738764;80;21345;-48
2022/01/24 07:40:28;;;;;;;8.10;3.00;;;;;;;-6.90;77.97;101299.12;1731392;80;22783;-48
2022/01/24 07:43:09;;;;;;;13.20;4.63;;;;;;;-6.81;78.07;101296.02;1734786;80;21336;-48
2022/01/24 07:45:26;;;;;;;10.37;4.37;;;;;;;-6.73;77.68;101291.62;1734989;80;21605;-49
2022/01/24 07:47:52;;;;;;;8.63;3.50;;;;;;;-6.72;77.74;101289.45;1740261;80;21179;-48
2022/01/24 07:50:23;;;;;;;8.90;3.63;;;;;;;-6.68;77.73;101286.57;1741373;80;21120;-48
2022/01/24 07:52:49;;;;;;;12.43;4.00;;;;;;;-6.62;77.77;101286.42;1743509;80;21622;-48
2022/01/24 07:57:43;;;;;;;6.83;3.43;;;;;;;-6.44;77.47;101290.69;1822250;75;25884;-52
2022/01/24 08:00:13;;;;;;;6.90;2.87;;;;;;;-6.46;77.24;101284.06;1799456;77;21153;-51
2022/01/24 08:02:40;;;;;;;9.03;3.27;;;;;;;-6.44;77.10;101261.87;1803135;77;21198;-48
2022/01/24 08:05:09;;;;;;;9.17;2.73;;;;;;;-6.41;77.13;101261.60;1775493;79;21007;-47
2022/01/24 08:07:38;;;;;;;8.97;3.40;;;;;;;-6.38;76.97;101257.78;1738867;77;20950;-51
2022/01/24 08:10:08;;;;;;;9.97;5.07;;;;;;;-6.34;77.01;101265.38;1756386;77;20987;-48
2022/01/24 08:12:38;;;;;;;13.83;6.33;;;;;;;-6.27;76.97;101266.11;1754262;77;20982;-49
2022/01/24 08:15:08;;;;;;;10.97;4.67;;;;;;;-6.23;76.75;101263.71;1802212;77;21130;-49
2022/01/24 08:17:35;;;;;;;10.83;4.67;;;;;;;-6.21;76.67;101260.72;1803156;77;21368;-48
2022/01/24 08:20:01;;;;;;;17.33;7.77;;;;;;;-6.18;76.38;101258.65;1804328;77;21002;-47
2022/01/24 08:22:27;;;;;;;16.00;7.47;;;;;;;-6.16;76.34;101256.58;1805387;77;21073;-50
2022/01/24 08:24:53;;;;;;;15.47;8.47;;;;;;;-6.16;76.05;101267.48;1805933;77;21073;-48
2022/01/24 08:27:20;;;;;;;18.83;8.83;;;;;;;-6.16;76.21;101260.52;1793748;77;21793;-51
2022/01/24 08:29:48;;;;;;;11.87;6.20;;;;;;;-6.14;75.94;101269.76;1796134;77;21470;-48
2022/01/24 08:32:17;;;;;;;10.00;4.13;;;;;;;-6.16;75.77;101260.52;1759780;79;21039;-49
2022/01/24 08:34:43;;;;;;;13.07;5.33;;;;;;;-6.16;75.83;101264.45;1744242;79;21135;-52
2022/01/24 08:37:10;;;;;;;17.70;6.77;;;;;;;-6.11;75.92;101262.01;1736677;79;21100;-48
2022/01/24 08:39:37;;;;;;;14.30;6.50;;;;;;;-6.05;75.63;101249.59;1743402;79;22364;-47
2022/01/24 08:47:23;;;;;;;11.60;5.67;;;;;;;-5.91;75.02;101243.19;1738195;79;21047;-48
2022/01/24 08:49:51;;;;;;;10.87;4.63;;;;;;;-5.89;75.26;101246.36;1748127;79;21048;-48
2022/01/24 08:52:17;;;;;;;9.43;4.00;;;;;;;-5.83;74.90;101250.91;1742449;79;21181;-48
2022/01/24 08:54:44;;;;;;;11.83;4.50;;;;;;;-5.76;74.97;101251.64;1739776;79;21069;-47
2022/01/24 08:57:10;;;;;;;9.43;4.13;;;;;;;-5.70;74.80;101248.39;1742367;79;21163;-48
2022/01/24 08:59:38;;;;;;;7.70;4.43;;;;;;;-5.63;74.70;101256.98;1744631;79;21073;-49
2022/01/24 09:02:05;;;;;;;9.00;3.73;;;;;;;-5.58;74.27;101250.17;1739116;79;21621;-51
2022/01/24 09:04:32;;;;;;;10.97;4.73;;;;;;;-5.53;74.23;101246.03;1738812;79;21100;-47
2022/01/24 09:07:04;;;;;;;8.03;4.20;;;;;;;-5.50;74.01;101248.34;1724217;79;21057;-47
2022/01/24 09:09:33;;;;;;;10.67;4.00;;;;;;;-5.42;74.12;101244.70;1745481;79;21080;-47
2022/01/24 09:12:03;;;;;;;8.73;3.37;;;;;;;-5.32;73.96;101244.65;1739588;79;21084;-49
2022/01/24 09:14:31;;;;;;;6.97;3.63;;;;;;;-5.25;73.84;101239.70;1744777;79;21049;-48
2022/01/24 09:16:57;;;;;;;12.23;5.07;;;;;;;-5.14;73.53;101246.68;1741378;79;21140;-46
2022/01/24 09:19:23;;;;;;;10.00;4.53;;;;;;;-5.05;72.71;101236.11;1744131;79;21025;-48
2022/01/24 09:21:50;;;;;;;11.30;4.57;;;;;;;-5.02;72.77;101236.66;1744549;79;21067;-47
2022/01/24 09:24:16;;;;;;;11.67;5.33;;;;;;;-5.01;72.37;101235.38;1741903;79;21364;-48
2022/01/24 09:26:43;;;;;;;13.47;6.63;;;;;;;-5.00;72.38;101239.80;1736756;79;21626;-49
2022/01/24 09:29:09;;;;;;;14.47;6.47;;;;;;;-4.99;71.84;101227.56;1741476;79;21175;-49
2022/01/24 09:31:35;;;;;;;16.27;5.60;;;;;;;-5.02;71.97;101231.41;1737251;79;21116;-47
2022/01/24 09:34:01;;;;;;;16.47;7.40;;;;;;;-4.98;72.00;101238.55;1720593;79;21374;-48
2022/01/24 09:36:28;;;;;;;15.90;8.80;;;;;;;-4.94;71.53;101237.84;1744921;79;21482;-47
2022/01/24 09:38:56;;;;;;;12.83;7.03;;;;;;;-4.92;71.17;101231.30;1739513;79;21053;-48
2022/01/24 09:41:22;;;;;;;14.53;5.30;;;;;;;-4.94;70.83;101240.46;1740453;79;21088;-47
2022/01/24 09:43:49;;;;;;;15.07;6.60;;;;;;;-4.98;70.89;101225.41;1738716;79;21154;-48
2022/01/24 09:46:15;;;;;;;24.40;11.43;;;;;;;-5.02;70.86;101230.95;1740487;79;21501;-48
2022/01/24 09:48:42;;;;;;;21.20;8.60;;;;;;;-5.05;70.79;101226.02;1737879;79;21000;-49
2022/01/24 09:51:09;;;;;;;16.70;7.90;;;;;;;-5.04;70.80;101222.56;1743366;79;20919;-48
2022/01/24 09:53:37;;;;;;;15.87;6.20;;;;;;;-5.04;70.72;101223.87;1745993;79;21092;-50
2022/01/24 09:56:04;;;;;;;24.57;9.13;;;;;;;-5.05;71.03;101214.20;1747460;79;20949;-48
2022/01/24 09:58:32;;;;;;;26.70;10.20;;;;;;;-5.05;70.91;101212.48;1749933;79;21479;-51
2022/01/24 10:01:01;;;;;;;16.20;6.67;;;;;;;-5.04;70.86;101212.06;1745329;79;20905;-51
2022/01/24 10:03:27;;;;;;;20.63;7.67;;;;;;;-5.05;70.62;101205.02;1738689;79;21571;-47
2022/01/24 10:05:55;;;;;;;26.63;10.27;;;;;;;-5.06;70.82;101201.50;1745641;79;21103;-49
2022/01/24 10:08:24;;;;;;;25.53;9.23;;;;;;;-5.01;70.69;101197.30;1744467;79;20941;-48
2022/01/24 10:10:55;;;;;;;13.27;4.77;;;;;;;-4.97;70.60;101204.88;1745017;79;21491;-48
2022/01/24 10:16:46;;;;;;;16.43;6.97;;;;;;;-4.93;70.38;101197.58;1744837;79;21482;-49
2022/01/24 10:19:15;;;;;;;17.33;7.33;;;;;;;-4.92;70.04;101187.97;1740197;79;22269;-48
2022/01/24 10:21:50;;;;;;;15.60;5.90;;;;;;;-4.92;69.97;101188.86;1747309;79;20969;-47
2022/01/24 10:24:37;;;;;;;13.90;6.63;;;;;;;-4.88;69.79;101188.56;1743417;79;22025;-48
2022/01/24 10:27:23;;;;;;;19.20;8.20;;;;;;;-4.88;69.55;101178.06;1753315;79;21360;-51
2022/01/24 10:30:07;;;;;;;26.23;12.03;;;;;;;-4.93;69.54;101178.33;1741429;79;21048;-48
2022/01/24 10:32:50;;;;;;;13.93;6.90;;;;;;;-4.94;69.87;101193.61;1740864;79;21095;-49
2022/01/24 10:35:38;;;;;;;12.60;6.65;;;;;;;-4.95;70.27;101188.77;1742347;79;21100;-48
2022/01/24 10:39:07;;;;;;;14.83;6.40;;;;;;;-4.97;70.20;101176.89;1739964;79;21417;-51
2022/01/24 10:41:19;;;;;;;12.17;5.60;;;;;;;-4.94;70.13;101174.81;1725826;79;21037;-48
2022/01/24 10:43:40;;;;;;;20.63;8.83;;;;;;;-4.88;70.06;101163.20;1739707;79;21092;-49
2022/01/24 10:46:07;;;;;;;18.47;7.00;;;;;;;-4.79;69.91;101172.73;1742025;79;21084;-50
2022/01/24 10:48:42;;;;;;;21.03;7.77;;;;;;;-4.72;69.88;101155.02;1742266;79;21099;-51
2022/01/24 10:51:19;;;;;;;15.57;6.03;;;;;;;-4.63;69.71;101157.08;1742147;79;21108;-48
2022/01/24 10:53:55;;;;;;;17.30;7.17;;;;;;;-4.58;69.39;101155.08;1745938;79;21108;-49
2022/01/24 10:56:41;;;;;;;16.30;7.67;;;;;;;-4.55;68.85;101151.67;1738812;79;21096;-52
2022/01/24 10:59:16;;;;;;;14.80;6.40;;;;;;;-4.51;68.83;101156.63;1750251;79;21140;-50
2022/01/24 11:01:45;;;;;;;;;;;;;;;-4.49;68.34;101156.23;1743354;79;21120;-49
2022/01/24 11:04:14;;;;;;;13.13;5.83;;;;;;;-4.50;67.92;101143.92;1744253;79;20142;-48
2022/01/24 11:06:45;;;;;;;13.17;5.77;;;;;;;-4.52;67.98;101147.84;1739549;79;21539;-47
2022/01/24 11:09:33;;;;;;;16.93;7.97;;;;;;;-4.49;68.24;101149.66;1737118;79;21068;-48
2022/01/24 11:12:08;;;;;;;15.67;6.80;;;;;;;-4.41;68.29;101153.02;1728441;79;21570;-50
2022/01/24 11:14:35;;;;;;;11.67;5.40;;;;;;;-4.34;68.24;101145.81;1742068;79;21089;-51
2022/01/24 11:17:03;;;;;;;16.03;8.07;;;;;;;-4.29;67.76;101154.77;1739073;79;21112;-50
2022/01/24 11:19:39;;;;;;;11.20;5.87;;;;;;;-4.32;67.65;101137.98;1741170;79;20992;-49
2022/01/24 11:22:05;;;;;;;20.80;9.97;;;;;;;-4.30;67.82;101129.73;1738099;79;22395;-49
2022/01/24 11:24:41;;;;;;;15.87;7.63;;;;;;;-4.22;67.64;101136.13;1760702;79;21142;-48
2022/01/24 11:27:06;;;;;;;23.30;10.10;;;;;;;-4.17;67.41;101124.05;1749774;79;21069;-49
2022/01/24 11:29:33;;;;;;;18.60;8.40;;;;;;;-4.15;67.43;101126.70;1741172;79;21073;-50
2022/01/24 11:32:28;;;;;;;13.90;7.10;;;;;;;-4.11;67.43;101127.29;1739700;79;21089;-49
2022/01/24 11:34:55;;;;;;;18.50;7.25;;;;;;;-4.07;67.29;101123.48;1741456;79;21576;-50
2022/01/24 11:37:38;;;;;;;14.27;7.10;;;;;;;-4.04;67.29;101120.06;1736399;79;22554;-47
2022/01/24 11:40:16;;;;;;;21.70;8.30;;;;;;;-4.02;66.93;101126.27;1745471;79;21179;-48
2022/01/24 11:42:45;;;;;;;22.03;9.30;;;;;;;-4.02;66.71;101132.43;1737016;79;21096;-49
2022/01/24 11:45:14;;;;;;;30.70;15.03;;;;;;;-4.05;66.43;101129.69;1749880;79;21108;-49
2022/01/24 11:47:42;;;;;;;14.87;5.40;;;;;;;-4.08;66.70;101123.45;1749387;79;21017;-48
2022/01/24 11:50:31;;;;;;;13.47;6.33;;;;;;;-4.12;66.51;101126.39;1747164;79;22100;-51
2022/01/24 11:52:58;;;;;;;9.00;4.03;;;;;;;-4.12;66.46;101126.39;1746159;79;21107;-50
2022/01/24 11:55:36;;;;;;;7.57;3.73;;;;;;;-4.08;66.24;101116.88;1752467;79;21471;-47
2022/01/24 11:58:07;;;;;;;5.20;2.97;;;;;;;-4.04;66.35;101113.07;1732394;79;21628;-47
2022/01/24 12:00:44;;;;;;;8.90;3.93;;;;;;;-3.99;65.97;101112.78;1711822;81;21120;-48
2022/01/24 12:03:15;;;;;;;8.30;3.73;;;;;;;-3.96;65.93;101108.05;1714522;81;22603;-50
2022/01/24 12:05:45;;;;;;;11.83;5.03;;;;;;;-3.92;66.10;101119.16;1715787;81;21112;-49
2022/01/24 12:08:13;;;;;;;9.17;3.77;;;;;;;-3.89;65.48;101110.02;1714759;81;22231;-50
2022/01/24 12:10:44;;;;;;;7.47;4.23;;;;;;;-3.85;65.79;101115.44;1706746;81;21020;-48
2022/01/24 12:13:25;;;;;;;8.60;4.13;;;;;;;-3.79;65.62;101110.78;1730472;81;20948;-49
2022/01/24 12:15:54;;;;;;;8.07;4.00;;;;;;;-3.73;65.62;101108.33;1728472;81;21116;-48
2022/01/24 12:18:29;;;;;;;7.23;3.13;;;;;;;-3.69;65.18;101118.12;1710879;82;21091;-49
2022/01/24 12:21:08;;;;;;;15.43;5.27;;;;;;;-3.65;65.04;101107.24;1709595;82;21578;-50
2022/01/24 12:23:41;;;;;;;5.37;3.20;;;;;;;-3.66;64.35;101102.86;1708788;82;21135;-50
2022/01/24 12:26:14;;;;;;;5.90;2.47;;;;;;;-3.65;64.89;101101.98;1711672;81;21108;-49
2022/01/24 12:28:47;;;;;;;8.20;2.93;;;;;;;-3.62;64.45;101106.92;1708559;81;21120;-50
2022/01/24 12:31:22;;;;;;;7.43;3.27;;;;;;;-3.62;64.33;101097.72;1710761;81;21376;-51
2022/01/24 12:34:04;;;;;;;5.60;2.17;;;;;;;-3.60;64.35;101096.45;1712314;81;21047;-48
2022/01/24 12:36:49;;;;;;;6.97;2.50;;;;;;;-3.63;63.77;101091.98;1713304;81;21110;-49
2022/01/24 12:39:23;;;;;;;4.78;1.92;;;;;;;-3.62;63.92;101106.03;1711582;82;21082;-51
2022/01/24 12:41:59;;;;;;;5.87;1.55;;;;;;;-3.61;64.09;101103.88;1727422;81;21138;-51
2022/01/24 12:47:13;;;;;;;5.53;2.23;;;;;;;-3.52;64.08;101102.83;1720433;81;21077;-49
2022/01/24 12:49:42;;;;;;;8.60;2.73;;;;;;;-3.48;63.79;101109.53;1720820;81;21058;-49
2022/01/24 12:52:11;;;;;;;8.03;2.57;;;;;;;-3.46;63.43;101097.73;1726757;81;21041;-48
2022/01/24 12:54:42;;;;;;;4.37;1.70;;;;;;;-3.50;63.07;101108.63;1729352;81;21092;-51
2022/01/24 13:00:16;;;;;;;5.27;2.37;;;;;;;-3.47;63.21;101101.22;1802688;77;26727;-51
2022/01/24 13:02:43;;;;;;;6.00;1.90;;;;;;;-3.49;63.33;101107.74;1776072;79;20908;-49
2022/01/24 13:05:23;;;;;;;4.77;1.70;;;;;;;-3.47;63.44;101108.69;1772084;78;21130;-49
2022/01/24 13:07:53;;;;;;;5.67;2.43;;;;;;;-3.44;63.56;101105.27;1775285;78;20848;-52
2022/01/24 13:10:26;;;;;;;7.30;2.40;;;;;;;-3.39;63.20;101102.33;1715304;81;20965;-50
2022/01/24 13:13:10;;;;;;;6.63;2.70;;;;;;;-3.39;63.34;101098.80;1738769;80;21029;-51
2022/01/24 13:21:10;;;;;;;5.73;2.77;;;;;;;-3.28;63.50;101100.91;1702837;81;20920;-49